createdAt,value
2016-07-13T00:00:30.681Z,13.97
2016-07-13T00:01:30.663Z,14.03
2016-07-13T00:02:30.646Z,13.97
2016-07-13T00:03:30.675Z,14.11
2016-07-13T00:04:30.693Z,14.08
2016-07-13T00:05:30.657Z,14.09
2016-07-13T00:06:30.554Z,14.06
2016-07-13T00:07:30.744Z,14.12
2016-07-13T00:08:30.641Z,14.11
2016-07-13T00:09:30.642Z,14.09
2016-07-13T00:10:30.632Z,14.16
2016-07-13T00:11:30.737Z,14.16
2016-07-13T00:12:30.649Z,14.15
2016-07-13T00:13:30.590Z,14.27
2016-07-13T00:14:31.325Z,14.21
2016-07-13T00:15:30.619Z,14.24
2016-07-13T00:16:30.503Z,14.21
2016-07-13T00:17:30.607Z,14.3
2016-07-13T00:18:30.604Z,14.27
2016-07-13T00:19:30.603Z,14.24
2016-07-13T00:20:30.593Z,14.21
2016-07-13T00:21:30.569Z,14.19
2016-07-13T00:22:30.572Z,14.21
2016-07-13T00:23:30.571Z,14.15
2016-07-13T00:24:30.582Z,14.16
2016-07-13T00:25:31.359Z,14.13
2016-07-13T00:26:30.456Z,14.15
2016-07-13T00:27:30.563Z,14.16
2016-07-13T00:28:30.559Z,14.12
2016-07-13T00:29:30.551Z,14.19
2016-07-13T00:30:30.673Z,14.23
2016-07-13T00:31:31.261Z,14.24
2016-07-13T00:32:30.543Z,14.16
2016-07-13T00:33:30.532Z,14.2
2016-07-13T00:34:30.544Z,14.15
2016-07-13T00:35:30.632Z,14.15
2016-07-13T00:36:30.620Z,14.2
2016-07-13T00:37:30.505Z,14.13
2016-07-13T00:38:30.628Z,14.16
2016-07-13T00:39:30.405Z,14.19
2016-07-13T00:40:30.495Z,14.23
2016-07-13T00:41:30.509Z,14.19
2016-07-13T00:42:30.535Z,14.26
2016-07-13T00:43:30.596Z,14.21
2016-07-13T00:44:30.499Z,14.21
2016-07-13T00:45:30.589Z,14.2
2016-07-13T00:46:30.370Z,14.27
2016-07-13T00:47:30.498Z,14.27
2016-07-13T00:48:30.483Z,14.27
2016-07-13T00:49:30.446Z,14.31
2016-07-13T00:50:30.493Z,14.31
2016-07-13T00:51:30.459Z,14.28
2016-07-13T00:52:30.566Z,14.3
2016-07-13T00:53:30.459Z,14.41
2016-07-13T00:54:30.460Z,14.44
2016-07-13T00:55:30.453Z,14.48
2016-07-13T00:56:30.336Z,14.48
2016-07-13T00:57:30.556Z,14.53
2016-07-13T00:58:30.452Z,14.46
2016-07-13T00:59:30.436Z,14.45
2016-07-13T01:00:30.441Z,14.52
2016-07-13T01:01:30.430Z,14.46
2016-07-13T01:02:30.431Z,14.49
2016-07-13T01:03:30.519Z,14.45
2016-07-13T01:04:30.424Z,14.46
2016-07-13T01:05:30.411Z,14.49
2016-07-13T01:06:30.306Z,14.44
2016-07-13T01:07:30.391Z,14.45
2016-07-13T01:08:30.401Z,14.46
2016-07-13T01:09:30.394Z,14.45
2016-07-13T01:10:30.391Z,14.46
2016-07-13T01:11:30.396Z,14.45
2016-07-13T01:12:30.400Z,14.48
2016-07-13T01:13:30.380Z,14.52
2016-07-13T01:14:30.375Z,14.48
2016-07-13T01:15:30.494Z,14.48
2016-07-13T01:16:30.278Z,14.49
2016-07-13T01:17:30.381Z,14.48
2016-07-13T01:18:30.367Z,14.48
2016-07-13T01:19:30.373Z,14.46
2016-07-13T01:20:31.070Z,14.49
2016-07-13T01:21:30.361Z,14.51
2016-07-13T01:22:30.352Z,14.46
2016-07-13T01:23:30.348Z,14.53
2016-07-13T01:24:30.338Z,14.46
2016-07-13T01:25:30.300Z,14.45
2016-07-13T01:26:30.238Z,14.45
2016-07-13T01:27:30.317Z,14.44
2016-07-13T01:28:30.350Z,14.44
2016-07-13T01:29:30.322Z,14.34
2016-07-13T01:30:30.318Z,14.31
2016-07-13T01:31:30.318Z,14.36
2016-07-13T01:32:30.314Z,14.34
2016-07-13T01:33:30.417Z,14.44
2016-07-13T01:34:30.424Z,14.36
2016-07-13T01:35:30.318Z,14.34
2016-07-13T01:36:30.196Z,14.33
2016-07-13T01:37:30.301Z,14.31
2016-07-13T01:38:30.289Z,14.36
2016-07-13T01:39:30.283Z,14.33
2016-07-13T01:40:30.287Z,14.27
2016-07-13T01:41:30.281Z,14.28
2016-07-13T01:42:30.275Z,14.27
2016-07-13T01:43:30.389Z,14.3
2016-07-13T01:44:30.272Z,14.28
2016-07-13T01:45:30.262Z,14.21
2016-07-13T01:46:30.143Z,14.24
2016-07-13T01:47:30.276Z,14.21
2016-07-13T01:48:30.248Z,14.3
2016-07-13T01:49:30.340Z,14.24
2016-07-13T01:50:30.957Z,14.28
2016-07-13T01:51:30.221Z,14.23
2016-07-13T01:52:30.216Z,14.27
2016-07-13T01:53:30.359Z,14.23
2016-07-13T01:54:30.228Z,14.27
2016-07-13T01:55:30.236Z,14.26
2016-07-13T01:56:30.111Z,14.27
2016-07-13T01:57:30.218Z,14.3
2016-07-13T01:58:30.307Z,14.3
2016-07-13T01:59:30.213Z,14.24
2016-07-13T02:00:30.203Z,14.31
2016-07-13T02:01:30.177Z,14.31
2016-07-13T02:02:30.182Z,14.27
2016-07-13T02:03:30.180Z,14.26
2016-07-13T02:04:30.934Z,14.27
2016-07-13T02:05:30.273Z,14.3
2016-07-13T02:06:30.064Z,14.24
2016-07-13T02:07:30.974Z,14.2
2016-07-13T02:08:30.270Z,14.19
2016-07-13T02:09:30.165Z,14.2
2016-07-13T02:10:30.278Z,14.15
2016-07-13T02:11:30.149Z,14.16
2016-07-13T02:12:30.148Z,14.19
2016-07-13T02:13:30.161Z,14.11
2016-07-13T02:14:30.129Z,14.12
2016-07-13T02:15:30.143Z,14.16
2016-07-13T02:16:30.032Z,14.06
2016-07-13T02:17:30.859Z,14.12
2016-07-13T02:18:30.128Z,14.15
2016-07-13T02:19:30.242Z,14.09
2016-07-13T02:20:30.092Z,14.03
2016-07-13T02:21:30.116Z,14.15
2016-07-13T02:22:30.123Z,14.13
2016-07-13T02:23:30.131Z,14.08
2016-07-13T02:24:29.991Z,14.19
2016-07-13T02:25:30.074Z,14.11
2016-07-13T02:26:30.074Z,14.11
2016-07-13T02:27:30.104Z,14.15
2016-07-13T02:28:30.062Z,14.06
2016-07-13T02:29:30.066Z,14.12
2016-07-13T02:30:30.077Z,14.16
2016-07-13T02:31:30.090Z,14.05
2016-07-13T02:32:30.091Z,14.05
2016-07-13T02:33:30.067Z,14.12
2016-07-13T02:34:29.950Z,14.09
2016-07-13T02:35:30.171Z,13.99
2016-07-13T02:36:29.949Z,14.03
2016-07-13T02:37:30.176Z,14.05
2016-07-13T02:38:30.174Z,13.97
2016-07-13T02:39:30.101Z,13.95
2016-07-13T02:40:30.053Z,13.95
2016-07-13T02:41:30.094Z,13.94
2016-07-13T02:42:30.098Z,13.94
2016-07-13T02:43:30.000Z,13.95
2016-07-13T02:44:30.131Z,13.95
2016-07-13T02:45:30.025Z,13.93
2016-07-13T02:46:29.908Z,13.99
2016-07-13T02:47:30.073Z,13.88
2016-07-13T02:48:29.902Z,13.93
2016-07-13T02:49:30.010Z,13.91
2016-07-13T02:50:30.017Z,13.9
2016-07-13T02:51:30.105Z,13.88
2016-07-13T02:52:29.962Z,13.91
2016-07-13T02:53:30.000Z,13.86
2016-07-13T02:54:29.992Z,13.9
2016-07-13T02:55:29.985Z,13.78
2016-07-13T02:56:29.978Z,13.79
2016-07-13T02:57:29.970Z,13.79
2016-07-13T02:58:29.865Z,13.81
2016-07-13T02:59:30.673Z,13.76
2016-07-13T03:00:29.972Z,13.78
2016-07-13T03:01:29.961Z,13.78
2016-07-13T03:02:29.950Z,13.84
2016-07-13T03:03:29.954Z,13.78
2016-07-13T03:04:29.832Z,13.79
2016-07-13T03:05:30.066Z,13.81
2016-07-13T03:06:29.896Z,13.83
2016-07-13T03:07:29.936Z,13.79
2016-07-13T03:08:29.818Z,13.75
2016-07-13T03:09:29.934Z,13.76
2016-07-13T03:10:29.921Z,13.69
2016-07-13T03:11:30.014Z,13.73
2016-07-13T03:12:29.798Z,13.69
2016-07-13T03:13:29.887Z,13.7
2016-07-13T03:14:29.803Z,13.68
2016-07-13T03:15:29.790Z,13.7
2016-07-13T03:16:29.835Z,13.7
2016-07-13T03:17:30.005Z,13.66
2016-07-13T03:18:29.778Z,13.75
2016-07-13T03:19:29.885Z,13.73
2016-07-13T03:20:29.862Z,13.6
2016-07-13T03:21:30.058Z,13.75
2016-07-13T03:22:29.884Z,13.7
2016-07-13T03:23:29.964Z,13.73
2016-07-13T03:24:29.849Z,13.68
2016-07-13T03:25:29.744Z,13.68
2016-07-13T03:26:29.735Z,13.73
2016-07-13T03:27:29.951Z,13.68
2016-07-13T03:28:29.820Z,13.68
2016-07-13T03:29:29.807Z,13.68
2016-07-13T03:30:29.732Z,13.72
2016-07-13T03:31:29.930Z,13.68
2016-07-13T03:32:29.875Z,13.65
2016-07-13T03:33:29.882Z,13.66
2016-07-13T03:34:29.837Z,13.68
2016-07-13T03:35:29.713Z,13.63
2016-07-13T03:36:29.697Z,13.72
2016-07-13T03:37:29.812Z,13.69
2016-07-13T03:38:29.810Z,13.73
2016-07-13T03:39:29.795Z,13.78
2016-07-13T03:40:29.676Z,13.62
2016-07-13T03:41:29.794Z,13.65
2016-07-13T03:42:29.799Z,13.69
2016-07-13T03:43:29.785Z,13.78
2016-07-13T03:44:29.749Z,13.79
2016-07-13T03:45:29.660Z,13.81
2016-07-13T03:46:29.649Z,13.83
2016-07-13T03:47:29.766Z,13.83
2016-07-13T03:48:29.761Z,13.9
2016-07-13T03:49:29.730Z,13.9
2016-07-13T03:50:29.642Z,13.93
2016-07-13T03:51:29.750Z,13.94
2016-07-13T03:52:29.754Z,13.95
2016-07-13T03:53:29.741Z,14.11
2016-07-13T03:54:29.746Z,14.06
2016-07-13T03:55:29.747Z,14.09
2016-07-13T03:56:30.334Z,14.08
2016-07-13T03:57:29.723Z,14.05
2016-07-13T03:58:29.772Z,14.09
2016-07-13T03:59:29.699Z,14.11
2016-07-13T04:00:29.624Z,14.15
2016-07-13T04:01:29.718Z,14.16
2016-07-13T04:02:29.713Z,14.19
2016-07-13T04:03:29.698Z,14.28
2016-07-13T04:04:29.695Z,14.24
2016-07-13T04:05:29.682Z,14.26
2016-07-13T04:06:29.579Z,14.28
2016-07-13T04:07:29.741Z,14.3
2016-07-13T04:08:29.676Z,14.34
2016-07-13T04:09:29.667Z,14.41
2016-07-13T04:10:29.679Z,14.34
2016-07-13T04:11:29.667Z,14.36
2016-07-13T04:12:29.666Z,14.41
2016-07-13T04:13:29.656Z,14.33
2016-07-13T04:14:29.663Z,14.42
2016-07-13T04:15:29.652Z,14.42
2016-07-13T04:16:29.542Z,14.39
2016-07-13T04:17:29.662Z,14.45
2016-07-13T04:18:29.640Z,14.39
2016-07-13T04:19:29.728Z,14.52
2016-07-13T04:20:29.822Z,14.51
2016-07-13T04:21:29.628Z,14.56
2016-07-13T04:22:29.643Z,14.48
2016-07-13T04:23:29.716Z,14.53
2016-07-13T04:24:29.622Z,14.49
2016-07-13T04:25:29.586Z,14.46
2016-07-13T04:26:30.215Z,14.51
2016-07-13T04:27:29.708Z,14.48
2016-07-13T04:28:29.728Z,14.57
2016-07-13T04:29:29.688Z,14.49
2016-07-13T04:30:29.588Z,14.57
2016-07-13T04:31:29.594Z,14.63
2016-07-13T04:32:29.588Z,14.66
2016-07-13T04:33:29.462Z,14.64
2016-07-13T04:34:29.578Z,14.63
2016-07-13T04:35:29.702Z,14.63
2016-07-13T04:36:30.160Z,14.63
2016-07-13T04:37:29.670Z,14.64
2016-07-13T04:38:29.560Z,14.66
2016-07-13T04:39:29.535Z,14.63
2016-07-13T04:40:29.557Z,14.67
2016-07-13T04:41:29.599Z,14.69
2016-07-13T04:42:29.544Z,14.67
2016-07-13T04:43:29.637Z,14.69
2016-07-13T04:44:29.519Z,14.71
2016-07-13T04:45:29.534Z,14.75
2016-07-13T04:46:29.420Z,14.66
2016-07-13T04:47:29.528Z,14.69
2016-07-13T04:48:29.523Z,14.74
2016-07-13T04:49:29.620Z,14.8
2016-07-13T04:50:29.621Z,14.9
2016-07-13T04:51:29.769Z,14.97
2016-07-13T04:52:29.777Z,15.02
2016-07-13T04:53:29.511Z,15.04
2016-07-13T04:54:29.504Z,15.12
2016-07-13T04:55:29.503Z,15.23
2016-07-13T04:56:29.380Z,15.22
2016-07-13T04:57:29.749Z,15.2
2016-07-13T04:58:29.487Z,15.33
2016-07-13T04:59:29.456Z,15.44
2016-07-13T05:00:29.484Z,15.52
2016-07-13T05:01:29.372Z,15.58
2016-07-13T05:02:29.485Z,15.77
2016-07-13T05:03:29.772Z,15.91
2016-07-13T05:04:29.778Z,16.06
2016-07-13T05:05:29.649Z,16.06
2016-07-13T05:06:29.343Z,16.18
2016-07-13T05:07:29.614Z,16.21
2016-07-13T05:08:29.650Z,16.27
2016-07-13T05:09:29.335Z,16.25
2016-07-13T05:10:29.640Z,16.21
2016-07-13T05:11:29.339Z,16.25
2016-07-13T05:12:29.603Z,16.32
2016-07-13T05:13:29.330Z,16.22
2016-07-13T05:14:29.627Z,16.27
2016-07-13T05:15:29.627Z,16.14
2016-07-13T05:16:29.322Z,16.29
2016-07-13T05:17:29.320Z,16.29
2016-07-13T05:18:30.309Z,16.27
2016-07-13T05:19:29.318Z,16.22
2016-07-13T05:20:29.585Z,16.16
2016-07-13T05:21:29.607Z,16.29
2016-07-13T05:22:29.717Z,16.32
2016-07-13T05:23:30.254Z,16.3
2016-07-13T05:24:29.513Z,16.32
2016-07-13T05:25:29.502Z,16.32
2016-07-13T05:26:29.293Z,16.48
2016-07-13T05:27:29.591Z,16.51
2016-07-13T05:28:29.586Z,16.48
2016-07-13T05:29:29.583Z,16.54
2016-07-13T05:30:29.591Z,16.57
2016-07-13T05:31:29.277Z,16.59
2016-07-13T05:32:29.692Z,16.69
2016-07-13T05:33:29.375Z,16.69
2016-07-13T05:34:29.370Z,16.7
2016-07-13T05:35:29.367Z,16.72
2016-07-13T05:36:29.266Z,16.8
2016-07-13T05:37:29.582Z,16.85
2016-07-13T05:38:29.349Z,16.87
2016-07-13T05:39:29.558Z,16.84
2016-07-13T05:40:29.473Z,16.87
2016-07-13T05:41:29.724Z,16.87
2016-07-13T05:42:29.371Z,16.97
2016-07-13T05:43:30.303Z,17.03
2016-07-13T05:44:29.662Z,16.94
2016-07-13T05:45:29.335Z,17.07
2016-07-13T05:46:29.946Z,17.13
2016-07-13T05:47:29.342Z,17.15
2016-07-13T05:48:29.352Z,17.22
2016-07-13T05:49:29.331Z,17.18
2016-07-13T05:50:29.612Z,17.32
2016-07-13T05:51:29.549Z,17.42
2016-07-13T05:52:29.346Z,17.4
2016-07-13T05:53:30.192Z,17.36
2016-07-13T05:54:29.546Z,17.35
2016-07-13T05:55:29.605Z,17.43
2016-07-13T05:56:29.228Z,17.47
2016-07-13T05:57:29.327Z,17.57
2016-07-13T05:58:29.327Z,17.47
2016-07-13T05:59:29.298Z,17.46
2016-07-13T06:00:29.329Z,17.46
2016-07-13T06:01:29.308Z,17.46
2016-07-13T06:02:29.307Z,17.47
2016-07-13T06:03:29.321Z,17.55
2016-07-13T06:04:29.327Z,17.52
2016-07-13T06:05:29.583Z,17.6
2016-07-13T06:06:29.203Z,17.62
2016-07-13T06:07:29.309Z,17.54
2016-07-13T06:08:29.285Z,17.63
2016-07-13T06:09:29.569Z,17.6
2016-07-13T06:10:30.022Z,17.73
2016-07-13T06:11:29.309Z,17.71
2016-07-13T06:12:29.312Z,17.74
2016-07-13T06:13:29.306Z,17.86
2016-07-13T06:14:29.273Z,17.84
2016-07-13T06:15:29.286Z,17.88
2016-07-13T06:16:29.186Z,17.98
2016-07-13T06:17:29.302Z,18.05
2016-07-13T06:18:29.289Z,17.99
2016-07-13T06:19:29.270Z,18.02
2016-07-13T06:20:29.310Z,17.92
2016-07-13T06:21:29.624Z,17.94
2016-07-13T06:22:29.294Z,17.87
2016-07-13T06:23:29.296Z,17.88
2016-07-13T06:24:29.281Z,18.06
2016-07-13T06:25:29.571Z,18.06
2016-07-13T06:26:29.175Z,18.11
2016-07-13T06:27:29.296Z,18.16
2016-07-13T06:28:30.084Z,18.29
2016-07-13T06:29:29.289Z,18.42
2016-07-13T06:30:30.000Z,18.63
2016-07-13T06:31:29.284Z,18.61
2016-07-13T06:32:29.250Z,18.76
2016-07-13T06:33:29.287Z,18.9
2016-07-13T06:34:29.165Z,19.06
2016-07-13T06:35:29.247Z,19.05
2016-07-13T06:36:29.163Z,19.06
2016-07-13T06:37:29.276Z,19.17
2016-07-13T06:38:29.274Z,19.24
2016-07-13T06:39:29.278Z,19.34
2016-07-13T06:40:29.314Z,19.3
2016-07-13T06:41:29.329Z,19.45
2016-07-13T06:42:29.157Z,19.55
2016-07-13T06:43:29.244Z,19.56
2016-07-13T06:44:29.244Z,19.55
2016-07-13T06:45:29.279Z,19.7
2016-07-13T06:46:29.153Z,19.78
2016-07-13T06:47:29.267Z,19.87
2016-07-13T06:48:29.242Z,19.83
2016-07-13T06:49:29.272Z,19.85
2016-07-13T06:50:29.264Z,19.89
2016-07-13T06:51:29.272Z,19.85
2016-07-13T06:52:29.265Z,19.87
2016-07-13T06:53:29.277Z,19.86
2016-07-13T06:54:29.269Z,19.8
2016-07-13T06:55:29.279Z,19.7
2016-07-13T06:56:29.155Z,19.65
2016-07-13T06:57:29.275Z,19.64
2016-07-13T06:58:29.247Z,19.6
2016-07-13T06:59:29.273Z,19.64
2016-07-13T07:00:29.236Z,19.67
2016-07-13T07:01:29.248Z,19.78
2016-07-13T07:02:29.272Z,19.89
2016-07-13T07:03:29.355Z,20.04
2016-07-13T07:04:29.147Z,20.27
2016-07-13T07:05:29.265Z,20.48
2016-07-13T07:06:29.148Z,20.56
2016-07-13T07:07:29.251Z,20.66
2016-07-13T07:08:29.534Z,20.76
2016-07-13T07:09:29.252Z,20.72
2016-07-13T07:10:29.148Z,20.64
2016-07-13T07:11:29.363Z,20.74
2016-07-13T07:12:29.218Z,21.09
2016-07-13T07:13:29.247Z,21.25
2016-07-13T07:14:29.254Z,21.28
2016-07-13T07:15:29.976Z,21.28
2016-07-13T07:16:29.149Z,21.77
2016-07-13T07:17:29.249Z,22.42
2016-07-13T07:18:29.251Z,23.18
2016-07-13T07:19:29.240Z,23.35
2016-07-13T07:20:29.153Z,23.15
2016-07-13T07:21:29.275Z,23
2016-07-13T07:22:29.161Z,23.45
2016-07-13T07:23:29.257Z,24
2016-07-13T07:24:29.254Z,24.12
2016-07-13T07:25:29.283Z,24.04
2016-07-13T07:26:29.160Z,23.81
2016-07-13T07:27:29.298Z,23.64
2016-07-13T07:28:29.270Z,23.52
2016-07-13T07:29:29.294Z,23.81
2016-07-13T07:30:29.282Z,24.45
2016-07-13T07:31:29.293Z,24.94
2016-07-13T07:32:29.290Z,25.08
2016-07-13T07:33:29.260Z,24.9
2016-07-13T07:34:29.297Z,24.74
2016-07-13T07:35:29.301Z,24.51
2016-07-13T07:36:29.184Z,24.21
2016-07-13T07:37:29.313Z,24.08
2016-07-13T07:38:29.577Z,23.78
2016-07-13T07:39:29.283Z,23.64
2016-07-13T07:40:30.018Z,23.4
2016-07-13T07:41:29.323Z,23.28
2016-07-13T07:42:29.299Z,23.03
2016-07-13T07:43:29.321Z,22.73
2016-07-13T07:44:29.306Z,22.45
2016-07-13T07:45:29.322Z,22.15
2016-07-13T07:46:29.222Z,21.89
2016-07-13T07:47:29.326Z,21.62
2016-07-13T07:48:29.653Z,21.48
2016-07-13T07:49:29.332Z,21.38
2016-07-13T07:50:29.329Z,21.21
2016-07-13T07:51:29.313Z,21.15
2016-07-13T07:52:29.598Z,21.13
2016-07-13T07:53:29.337Z,20.96
2016-07-13T07:54:29.336Z,20.9
2016-07-13T07:55:29.338Z,20.83
2016-07-13T07:56:29.609Z,20.75
2016-07-13T07:57:29.343Z,20.67
2016-07-13T07:58:30.041Z,20.54
2016-07-13T07:59:29.627Z,20.4
2016-07-13T08:00:29.357Z,20.35
2016-07-13T08:01:29.632Z,20.2
2016-07-13T08:02:29.551Z,20.02
2016-07-13T08:03:29.360Z,19.98
2016-07-13T08:04:29.365Z,19.9
2016-07-13T08:05:29.361Z,19.86
2016-07-13T08:06:29.240Z,19.72
2016-07-13T08:07:29.685Z,19.6
2016-07-13T08:08:29.352Z,19.49
2016-07-13T08:09:29.697Z,19.32
2016-07-13T08:10:29.570Z,19.23
2016-07-13T08:11:30.080Z,19.1
2016-07-13T08:12:29.658Z,18.97
2016-07-13T08:13:29.549Z,18.78
2016-07-13T08:14:29.496Z,18.78
2016-07-13T08:15:29.334Z,18.57
2016-07-13T08:16:29.251Z,18.47
2016-07-13T08:17:29.622Z,18.34
2016-07-13T08:18:29.578Z,18.29
2016-07-13T08:19:29.627Z,18.16
2016-07-13T08:20:29.340Z,18.21
2016-07-13T08:21:29.243Z,18.03
2016-07-13T08:22:29.682Z,18.02
2016-07-13T08:23:29.657Z,17.84
2016-07-13T08:24:29.354Z,17.79
2016-07-13T08:25:29.363Z,17.76
2016-07-13T08:26:29.239Z,17.69
2016-07-13T08:27:29.356Z,17.68
2016-07-13T08:28:29.553Z,17.55
2016-07-13T08:29:29.359Z,17.47
2016-07-13T08:30:29.344Z,17.5
2016-07-13T08:31:29.242Z,17.52
2016-07-13T08:32:29.355Z,17.45
2016-07-13T08:33:29.563Z,17.35
2016-07-13T08:34:29.339Z,17.39
2016-07-13T08:35:29.324Z,17.3
2016-07-13T08:36:29.234Z,17.43
2016-07-13T08:37:29.348Z,17.46
2016-07-13T08:38:29.349Z,17.49
2016-07-13T08:39:30.042Z,17.45
2016-07-13T08:40:29.351Z,17.63
2016-07-13T08:41:29.238Z,17.71
2016-07-13T08:42:29.349Z,17.8
2016-07-13T08:43:29.350Z,17.88
2016-07-13T08:44:29.339Z,18.05
2016-07-13T08:45:29.346Z,18.2
2016-07-13T08:46:29.238Z,18.29
2016-07-13T08:47:29.355Z,18.41
2016-07-13T08:48:29.336Z,18.56
2016-07-13T08:49:29.342Z,18.57
2016-07-13T08:50:29.557Z,18.75
2016-07-13T08:51:29.545Z,18.81
2016-07-13T08:52:29.603Z,18.93
2016-07-13T08:53:29.353Z,19.12
2016-07-13T08:54:29.342Z,19.15
2016-07-13T08:55:29.537Z,19.25
2016-07-13T08:56:29.221Z,19.23
2016-07-13T08:57:29.609Z,19.24
2016-07-13T08:58:29.353Z,19.16
2016-07-13T08:59:29.337Z,19.27
2016-07-13T09:00:29.337Z,19.23
2016-07-13T09:01:29.336Z,19.23
2016-07-13T09:02:29.333Z,19.2
2016-07-13T09:03:29.217Z,19.25
2016-07-13T09:04:29.547Z,19.24
2016-07-13T09:05:30.237Z,19.13
2016-07-13T09:06:29.223Z,18.96
2016-07-13T09:07:29.336Z,18.93
2016-07-13T09:08:29.336Z,18.72
2016-07-13T09:09:29.311Z,18.5
2016-07-13T09:10:29.327Z,18.34
2016-07-13T09:11:29.333Z,18.19
2016-07-13T09:12:29.609Z,18.03
2016-07-13T09:13:29.331Z,18.01
2016-07-13T09:14:29.256Z,17.86
2016-07-13T09:15:29.335Z,17.71
2016-07-13T09:16:29.233Z,17.57
2016-07-13T09:17:29.349Z,17.31
2016-07-13T09:18:29.334Z,17.06
2016-07-13T09:19:29.333Z,16.92
2016-07-13T09:20:29.211Z,16.77
2016-07-13T09:21:29.216Z,16.66
2016-07-13T09:22:29.669Z,16.51
2016-07-13T09:23:29.327Z,16.25
2016-07-13T09:24:29.324Z,16.27
2016-07-13T09:25:29.378Z,16.16
2016-07-13T09:26:29.194Z,16.07
2016-07-13T09:27:29.395Z,15.93
2016-07-13T09:28:29.314Z,15.95
2016-07-13T09:29:30.463Z,15.88
2016-07-13T09:30:29.817Z,15.83
2016-07-13T09:31:30.693Z,15.83
2016-07-13T09:33:29.269Z,15.71
2016-07-13T09:34:30.201Z,15.78
2016-07-13T09:35:29.293Z,15.78
2016-07-13T09:36:29.184Z,15.73
2016-07-13T09:37:29.289Z,15.7
2016-07-13T09:38:29.282Z,15.6
2016-07-13T09:39:29.651Z,15.6
2016-07-13T09:40:29.627Z,15.6
2016-07-13T09:41:29.326Z,15.63
2016-07-13T09:42:29.342Z,15.52
2016-07-13T09:43:30.317Z,15.6
2016-07-13T09:44:29.596Z,15.59
2016-07-13T09:45:29.250Z,15.74
2016-07-13T09:46:30.171Z,15.73
2016-07-13T09:47:29.262Z,15.78
2016-07-13T09:48:30.292Z,15.99
2016-07-13T09:49:29.353Z,16.07
2016-07-13T09:50:29.260Z,16.25
2016-07-13T09:51:29.256Z,16.34
2016-07-13T09:52:29.347Z,16.47
2016-07-13T09:53:29.222Z,16.62
2016-07-13T09:54:29.342Z,16.88
2016-07-13T09:55:29.336Z,17.07
2016-07-13T09:56:29.123Z,17.12
2016-07-13T09:57:29.233Z,17.2
2016-07-13T09:58:29.294Z,17.27
2016-07-13T09:59:29.230Z,17.43
2016-07-13T10:00:29.325Z,17.5
2016-07-13T10:01:29.235Z,17.66
2016-07-13T10:02:29.196Z,17.84
2016-07-13T10:03:29.214Z,17.84
2016-07-13T10:04:29.216Z,18.06
2016-07-13T10:05:29.234Z,18.31
2016-07-13T10:06:29.101Z,18.6
2016-07-13T10:07:29.234Z,18.69
2016-07-13T10:08:29.306Z,18.93
2016-07-13T10:09:29.213Z,19.09
2016-07-13T10:10:29.209Z,19.32
2016-07-13T10:11:29.207Z,19.61
2016-07-13T10:12:29.203Z,19.75
2016-07-13T10:13:29.203Z,19.85
2016-07-13T10:14:29.201Z,19.97
2016-07-13T10:15:29.211Z,19.95
2016-07-13T10:16:29.094Z,19.92
2016-07-13T10:17:29.200Z,19.82
2016-07-13T10:18:29.917Z,19.89
2016-07-13T10:19:29.203Z,19.98
2016-07-13T10:20:29.194Z,19.9
2016-07-13T10:21:29.199Z,19.92
2016-07-13T10:22:29.200Z,20
2016-07-13T10:23:29.177Z,20.18
2016-07-13T10:24:29.907Z,20.4
2016-07-13T10:25:29.195Z,20.67
2016-07-13T10:26:29.076Z,20.88
2016-07-13T10:27:29.203Z,21
2016-07-13T10:28:29.211Z,20.97
2016-07-13T10:29:29.199Z,20.81
2016-07-13T10:30:29.200Z,20.71
2016-07-13T10:31:29.197Z,20.75
2016-07-13T10:33:29.309Z,20.98
2016-07-13T10:34:29.192Z,21.08
2016-07-13T10:35:29.199Z,21.15
2016-07-13T10:36:29.081Z,21.15
2016-07-13T10:37:29.202Z,21.19
2016-07-13T10:38:29.190Z,21.12
2016-07-13T10:39:29.224Z,21.08
2016-07-13T10:40:29.198Z,20.98
2016-07-13T10:41:29.253Z,21.11
2016-07-13T10:42:29.212Z,20.98
2016-07-13T10:43:29.210Z,21.12
2016-07-13T10:44:29.208Z,21.15
2016-07-13T10:45:29.205Z,21.25
2016-07-13T10:46:29.098Z,21.3
2016-07-13T10:47:29.205Z,21.38
2016-07-13T10:48:29.211Z,21.33
2016-07-13T10:49:29.217Z,21.59
2016-07-13T10:50:29.203Z,21.61
2016-07-13T10:51:29.210Z,21.82
2016-07-13T10:52:29.211Z,21.85
2016-07-13T10:53:29.212Z,21.99
2016-07-13T10:54:29.209Z,21.99
2016-07-13T10:55:29.222Z,22.05
2016-07-13T10:56:29.101Z,22.12
2016-07-13T10:57:29.210Z,21.99
2016-07-13T10:58:29.195Z,22.23
2016-07-13T10:59:29.314Z,22.49
2016-07-13T11:00:29.104Z,22.76
2016-07-13T11:01:29.214Z,22.63
2016-07-13T11:02:29.221Z,22.54
2016-07-13T11:03:29.231Z,22.42
2016-07-13T11:04:29.108Z,22.23
2016-07-13T11:05:29.225Z,21.96
2016-07-13T11:06:29.118Z,21.83
2016-07-13T11:07:29.264Z,21.67
2016-07-13T11:08:29.223Z,21.46
2016-07-13T11:09:29.948Z,21.41
2016-07-13T11:10:29.299Z,21.36
2016-07-13T11:11:29.955Z,21.36
2016-07-13T11:12:29.219Z,21.38
2016-07-13T11:13:29.948Z,21.34
2016-07-13T11:14:29.207Z,21.3
2016-07-13T11:15:29.241Z,21.16
2016-07-13T11:16:29.340Z,21.01
2016-07-13T11:17:29.240Z,21.08
2016-07-13T11:18:29.243Z,21.01
2016-07-13T11:19:29.343Z,21.06
2016-07-13T11:20:29.126Z,21.12
2016-07-13T11:21:29.244Z,21.23
2016-07-13T11:22:29.132Z,21.25
2016-07-13T11:23:29.362Z,21.15
2016-07-13T11:24:29.219Z,21.08
2016-07-13T11:25:29.253Z,20.88
2016-07-13T11:26:29.142Z,20.82
2016-07-13T11:27:29.264Z,20.66
2016-07-13T11:28:29.147Z,20.57
2016-07-13T11:29:29.269Z,20.56
2016-07-13T11:30:29.137Z,20.41
2016-07-13T11:31:29.537Z,20.44
2016-07-13T11:32:29.232Z,20.46
2016-07-13T11:33:29.255Z,20.49
2016-07-13T11:34:29.271Z,20.74
2016-07-13T11:35:29.268Z,20.79
2016-07-13T11:36:29.303Z,20.94
2016-07-13T11:37:29.270Z,20.98
2016-07-13T11:38:29.268Z,20.97
2016-07-13T11:39:29.262Z,20.83
2016-07-13T11:40:29.970Z,20.67
2016-07-13T11:41:29.326Z,20.41
2016-07-13T11:42:29.269Z,20.27
2016-07-13T11:43:29.539Z,20.11
2016-07-13T11:44:29.279Z,20
2016-07-13T11:45:29.267Z,20
2016-07-13T11:46:29.865Z,19.95
2016-07-13T11:47:29.277Z,19.8
2016-07-13T11:48:29.601Z,19.65
2016-07-13T11:49:29.251Z,19.53
2016-07-13T11:50:29.247Z,19.6
2016-07-13T11:51:29.254Z,19.65
2016-07-13T11:52:29.253Z,19.72
2016-07-13T11:53:29.271Z,19.78
2016-07-13T11:54:29.270Z,19.85
2016-07-13T11:55:29.275Z,19.93
2016-07-13T11:56:29.157Z,20.16
2016-07-13T11:57:29.259Z,20.34
2016-07-13T11:58:29.276Z,20.4
2016-07-13T11:59:29.275Z,20.44
2016-07-13T12:00:29.277Z,20.49
2016-07-13T12:01:29.269Z,20.41
2016-07-13T12:02:29.248Z,20.49
2016-07-13T12:03:29.270Z,20.3
2016-07-13T12:04:29.252Z,20.26
2016-07-13T12:05:29.282Z,20.12
2016-07-13T12:06:29.159Z,20.19
2016-07-13T12:07:29.256Z,20.12
2016-07-13T12:08:29.265Z,20.2
2016-07-13T12:09:29.273Z,20.15
2016-07-13T12:10:29.281Z,20.15
2016-07-13T12:11:29.289Z,20.26
2016-07-13T12:12:29.254Z,20.16
2016-07-13T12:13:29.282Z,20.29
2016-07-13T12:14:29.284Z,20.22
2016-07-13T12:15:29.282Z,20.22
2016-07-13T12:16:29.163Z,20.42
2016-07-13T12:17:29.285Z,20.32
2016-07-13T12:18:29.973Z,20.27
2016-07-13T12:19:29.615Z,20.16
2016-07-13T12:20:29.289Z,20.19
2016-07-13T12:21:29.286Z,20.04
2016-07-13T12:22:29.491Z,20.04
2016-07-13T12:23:29.293Z,20.15
2016-07-13T12:24:29.280Z,20.16
2016-07-13T12:25:29.561Z,20.2
2016-07-13T12:26:29.169Z,20.38
2016-07-13T12:27:29.295Z,20.38
2016-07-13T12:28:29.281Z,20.3
2016-07-13T12:29:29.556Z,20.42
2016-07-13T12:30:29.556Z,20.42
2016-07-13T12:31:29.615Z,20.56
2016-07-13T12:32:29.558Z,20.74
2016-07-13T12:33:29.618Z,20.79
2016-07-13T12:34:29.255Z,20.93
2016-07-13T12:35:29.278Z,21.06
2016-07-13T12:36:29.170Z,21.18
2016-07-13T12:37:29.619Z,21.25
2016-07-13T12:38:29.304Z,21.3
2016-07-13T12:39:29.560Z,21.49
2016-07-13T12:40:29.335Z,21.71
2016-07-13T12:41:29.293Z,21.92
2016-07-13T12:42:29.297Z,22.02
2016-07-13T12:43:29.177Z,21.93
2016-07-13T12:44:29.314Z,21.85
2016-07-13T12:45:29.559Z,21.76
2016-07-13T12:46:29.192Z,21.49
2016-07-13T12:47:29.307Z,21.45
2016-07-13T12:48:29.308Z,21.38
2016-07-13T12:49:29.186Z,21.28
2016-07-13T12:50:29.308Z,21.4
2016-07-13T12:51:29.192Z,21.4
2016-07-13T12:52:29.308Z,21.36
2016-07-13T12:53:29.234Z,21.43
2016-07-13T12:54:29.294Z,21.34
2016-07-13T12:55:30.038Z,21.38
2016-07-13T12:56:29.201Z,21.38
2016-07-13T12:57:29.499Z,21.18